sensor_id;sensor_type;location;lat;lon;timestamp;pressure;altitude;pressure_sealevel;temperature;humidity
23417;BME280;11881;42.432;25.632;2023-12-20T00:00:55;99645.59;;;4.92;100.00
23417;BME280;11881;42.432;25.632;2023-12-20T00:03:20;99638.91;;;4.87;100.00
23417;BME280;11881;42.432;25.632;2023-12-20T00:05:47;99648.75;;;4.99;100.00
23417;BME280;11881;42.432;25.632;2023-12-20T00:08:12;99644.50;;;5.11;100.00
23417;BME280;11881;42.432;25.632;2023-12-20T00:10:38;99642.03;;;5.07;100.00
23417;BME280;11881;42.432;25.632;2023-12-20T00:13:03;99642.50;;;5.00;100.00
23417;BME280;11881;42.432;25.632;2023-12-20T00:15:29;99630.59;;;4.93;100.00
23417;BME280;11881;42.432;25.632;2023-12-20T00:17:54;99644.00;;;4.90;100.00
23417;BME280;11881;42.432;25.632;2023-12-20T00:20:20;99638.25;;;4.97;100.00
23417;BME280;11881;42.432;25.632;2023-12-20T00:22:45;99642.50;;;5.00;100.00
23417;BME280;11881;42.432;25.632;2023-12-20T00:25:11;99635.44;;;5.00;100.00
23417;BME280;11881;42.432;25.632;2023-12-20T00:27:37;99639.19;;;4.96;100.00
23417;BME280;11881;42.432;25.632;2023-12-20T00:30:02;99633.56;;;4.88;100.00
23417;BME280;11881;42.432;25.632;2023-12-20T00:32:28;99631.09;;;4.85;100.00
23417;BME280;11881;42.432;25.632;2023-12-20T00:34:53;99639.28;;;4.80;100.00
23417;BME280;11881;42.432;25.632;2023-12-20T00:37:19;99623.53;;;4.79;100.00
23417;BME280;11881;42.432;25.632;2023-12-20T00:39:44;99619.69;;;4.85;100.00
23417;BME280;11881;42.432;25.632;2023-12-20T00:42:09;99608.84;;;4.89;100.00
23417;BME280;11881;42.432;25.632;2023-12-20T00:44:35;99610.53;;;4.90;100.00
23417;BME280;11881;42.432;25.632;2023-12-20T00:47:00;99608.19;;;4.86;100.00
23417;BME280;11881;42.432;25.632;2023-12-20T00:49:26;99604.78;;;4.84;100.00
23417;BME280;11881;42.432;25.632;2023-12-20T00:51:52;99603.84;;;4.85;100.00
23417;BME280;11881;42.432;25.632;2023-12-20T00:54:18;99598.19;;;4.76;100.00
23417;BME280;11881;42.432;25.632;2023-12-20T00:56:43;99593.78;;;4.77;100.00
23417;BME280;11881;42.432;25.632;2023-12-20T00:59:09;99591.88;;;4.79;100.00
23417;BME280;11881;42.432;25.632;2023-12-20T01:01:34;99588.00;;;4.85;100.00
23417;BME280;11881;42.432;25.632;2023-12-20T01:04:00;99585.66;;;4.94;100.00
23417;BME280;11881;42.432;25.632;2023-12-20T01:06:25;99578.28;;;4.85;100.00
23417;BME280;11881;42.432;25.632;2023-12-20T01:08:51;99586.59;;;4.93;100.00
23417;BME280;11881;42.432;25.632;2023-12-20T01:11:16;99590.81;;;4.96;100.00
23417;BME280;11881;42.432;25.632;2023-12-20T01:13:41;99582.41;;;5.03;100.00
23417;BME280;11881;42.432;25.632;2023-12-20T01:16:10;99583.38;;;5.02;100.00
23417;BME280;11881;42.432;25.632;2023-12-20T01:18:35;99578.38;;;4.98;100.00
23417;BME280;11881;42.432;25.632;2023-12-20T01:21:02;99574.81;;;4.99;100.00
23417;BME280;11881;42.432;25.632;2023-12-20T01:23:28;99580.94;;;4.99;100.00
23417;BME280;11881;42.432;25.632;2023-12-20T01:25:54;99572.63;;;5.05;100.00
23417;BME280;11881;42.432;25.632;2023-12-20T01:28:19;99569.25;;;4.89;100.00
23417;BME280;11881;42.432;25.632;2023-12-20T01:30:45;99572.63;;;4.91;100.00
23417;BME280;11881;42.432;25.632;2023-12-20T01:33:10;99573.22;;;4.82;100.00
23417;BME280;11881;42.432;25.632;2023-12-20T01:35:36;99564.34;;;4.83;100.00
23417;BME280;11881;42.432;25.632;2023-12-20T01:38:02;99564.75;;;4.77;100.00
23417;BME280;11881;42.432;25.632;2023-12-20T01:40:28;99562.47;;;4.71;100.00
23417;BME280;11881;42.432;25.632;2023-12-20T01:43:07;99561.63;;;4.70;100.00
23417;BME280;11881;42.432;25.632;2023-12-20T01:45:33;99553.97;;;4.80;100.00
23417;BME280;11881;42.432;25.632;2023-12-20T01:47:59;99548.13;;;4.89;100.00
23417;BME280;11881;42.432;25.632;2023-12-20T01:50:25;99542.38;;;4.68;100.00
23417;BME280;11881;42.432;25.632;2023-12-20T01:52:52;99542.59;;;4.51;100.00
23417;BME280;11881;42.432;25.632;2023-12-20T01:55:21;99539.19;;;4.49;100.00
23417;BME280;11881;42.432;25.632;2023-12-20T01:57:47;99534.94;;;4.32;100.00
23417;BME280;11881;42.432;25.632;2023-12-20T02:00:13;99525.06;;;4.36;100.00
23417;BME280;11881;42.432;25.632;2023-12-20T02:02:40;99523.34;;;4.35;100.00
23417;BME280;11881;42.432;25.632;2023-12-20T02:05:09;99527.31;;;4.27;100.00
23417;BME280;11881;42.432;25.632;2023-12-20T02:07:35;99523.25;;;4.22;100.00
23417;BME280;11881;42.432;25.632;2023-12-20T02:10:04;99521.97;;;4.29;100.00
23417;BME280;11881;42.432;25.632;2023-12-20T02:12:30;99510.28;;;4.47;100.00
23417;BME280;11881;42.432;25.632;2023-12-20T02:14:55;99516.38;;;4.34;100.00
23417;BME280;11881;42.432;25.632;2023-12-20T02:17:22;99505.47;;;4.40;100.00
23417;BME280;11881;42.432;25.632;2023-12-20T02:19:47;99497.94;;;4.48;100.00
23417;BME280;11881;42.432;25.632;2023-12-20T02:22:13;99500.50;;;4.35;100.00
23417;BME280;11881;42.432;25.632;2023-12-20T02:24:39;99487.00;;;4.25;100.00
23417;BME280;11881;42.432;25.632;2023-12-20T02:27:06;99498.09;;;4.16;100.00
23417;BME280;11881;42.432;25.632;2023-12-20T02:29:33;99491.59;;;4.22;100.00
23417;BME280;11881;42.432;25.632;2023-12-20T02:31:58;99493.59;;;4.18;100.00
23417;BME280;11881;42.432;25.632;2023-12-20T02:34:24;99494.06;;;4.25;100.00
23417;BME280;11881;42.432;25.632;2023-12-20T02:36:50;99489.81;;;4.08;100.00
23417;BME280;11881;42.432;25.632;2023-12-20T02:39:15;99495.88;;;4.24;100.00
23417;BME280;11881;42.432;25.632;2023-12-20T02:41:41;99494.72;;;4.14;100.00
23417;BME280;11881;42.432;25.632;2023-12-20T02:44:06;99492.25;;;4.11;100.00
23417;BME280;11881;42.432;25.632;2023-12-20T02:46:32;99488.97;;;4.22;100.00
23417;BME280;11881;42.432;25.632;2023-12-20T02:48:57;99486.81;;;4.14;100.00
23417;BME280;11881;42.432;25.632;2023-12-20T02:51:23;99479.06;;;4.11;100.00
23417;BME280;11881;42.432;25.632;2023-12-20T02:53:48;99481.13;;;3.92;100.00
23417;BME280;11881;42.432;25.632;2023-12-20T02:56:14;99476.44;;;3.97;100.00
23417;BME280;11881;42.432;25.632;2023-12-20T02:58:39;99477.59;;;4.07;100.00
23417;BME280;11881;42.432;25.632;2023-12-20T03:01:05;99481.91;;;4.22;100.00
23417;BME280;11881;42.432;25.632;2023-12-20T03:03:31;99488.97;;;4.08;100.00
23417;BME280;11881;42.432;25.632;2023-12-20T03:05:57;99485.03;;;4.00;100.00
23417;BME280;11881;42.432;25.632;2023-12-20T03:08:22;99487.25;;;3.92;100.00
23417;BME280;11881;42.432;25.632;2023-12-20T03:10:48;99481.50;;;4.00;100.00
23417;BME280;11881;42.432;25.632;2023-12-20T03:13:13;99478.81;;;4.02;100.00
23417;BME280;11881;42.432;25.632;2023-12-20T03:15:39;99474.28;;;3.89;100.00
23417;BME280;11881;42.432;25.632;2023-12-20T03:18:05;99472.38;;;3.91;100.00
23417;BME280;11881;42.432;25.632;2023-12-20T03:20:30;99467.41;;;4.01;100.00
23417;BME280;11881;42.432;25.632;2023-12-20T03:23:03;99471.38;;;4.08;100.00
23417;BME280;11881;42.432;25.632;2023-12-20T03:25:29;99465.53;;;4.03;100.00
23417;BME280;11881;42.432;25.632;2023-12-20T03:27:54;99456.28;;;4.10;100.00
23417;BME280;11881;42.432;25.632;2023-12-20T03:30:20;99452.50;;;4.00;100.00
23417;BME280;11881;42.432;25.632;2023-12-20T03:32:46;99454.34;;;4.14;100.00
23417;BME280;11881;42.432;25.632;2023-12-20T03:35:12;99448.03;;;4.31;100.00
23417;BME280;11881;42.432;25.632;2023-12-20T03:37:37;99447.81;;;4.34;100.00
23417;BME280;11881;42.432;25.632;2023-12-20T03:40:03;99445.84;;;4.37;100.00
23417;BME280;11881;42.432;25.632;2023-12-20T03:42:29;99432.94;;;4.33;100.00
23417;BME280;11881;42.432;25.632;2023-12-20T03:44:54;99434.72;;;4.32;100.00
23417;BME280;11881;42.432;25.632;2023-12-20T03:47:20;99429.28;;;4.21;100.00
23417;BME280;11881;42.432;25.632;2023-12-20T03:49:45;99425.13;;;4.17;100.00
23417;BME280;11881;42.432;25.632;2023-12-20T03:52:11;99425.03;;;4.33;100.00
23417;BME280;11881;42.432;25.632;2023-12-20T03:54:37;99422.94;;;4.38;100.00
23417;BME280;11881;42.432;25.632;2023-12-20T03:57:02;99416.72;;;4.39;100.00
23417;BME280;11881;42.432;25.632;2023-12-20T03:59:28;99426.53;;;4.22;100.00
23417;BME280;11881;42.432;25.632;2023-12-20T04:01:53;99414.88;;;4.26;100.00
23417;BME280;11881;42.432;25.632;2023-12-20T04:04:19;99419.09;;;4.15;100.00
23417;BME280;11881;42.432;25.632;2023-12-20T04:06:44;99413.84;;;4.15;100.00
23417;BME280;11881;42.432;25.632;2023-12-20T04:09:10;99408.38;;;4.04;100.00
23417;BME280;11881;42.432;25.632;2023-12-20T04:11:38;99411.97;;;4.03;100.00
23417;BME280;11881;42.432;25.632;2023-12-20T04:14:23;99402.81;;;4.08;100.00
23417;BME280;11881;42.432;25.632;2023-12-20T04:16:49;99400.09;;;4.24;100.00
23417;BME280;11881;42.432;25.632;2023-12-20T04:19:15;99406.13;;;4.12;100.00
23417;BME280;11881;42.432;25.632;2023-12-20T04:21:40;99394.72;;;4.25;100.00
23417;BME280;11881;42.432;25.632;2023-12-20T04:24:06;99402.16;;;4.19;100.00
23417;BME280;11881;42.432;25.632;2023-12-20T04:26:31;99402.94;;;4.07;100.00
23417;BME280;11881;42.432;25.632;2023-12-20T04:28:56;99400.09;;;4.24;100.00
23417;BME280;11881;42.432;25.632;2023-12-20T04:31:22;99411.94;;;4.17;100.00
23417;BME280;11881;42.432;25.632;2023-12-20T04:33:47;99407.81;;;3.98;100.00
23417;BME280;11881;42.432;25.632;2023-12-20T04:36:13;99415.25;;;4.06;100.00
23417;BME280;11881;42.432;25.632;2023-12-20T04:38:38;99405.94;;;4.15;100.00
23417;BME280;11881;42.432;25.632;2023-12-20T04:41:04;99409.78;;;4.09;100.00
23417;BME280;11881;42.432;25.632;2023-12-20T04:43:29;99413.28;;;4.10;100.00
23417;BME280;11881;42.432;25.632;2023-12-20T04:45:55;99406.88;;;3.85;100.00
23417;BME280;11881;42.432;25.632;2023-12-20T04:48:20;99408.09;;;4.08;100.00
23417;BME280;11881;42.432;25.632;2023-12-20T04:50:46;99411.75;;;4.06;100.00
23417;BME280;11881;42.432;25.632;2023-12-20T04:53:11;99412.03;;;3.87;100.00
23417;BME280;11881;42.432;25.632;2023-12-20T04:55:37;99405.19;;;3.84;100.00
23417;BME280;11881;42.432;25.632;2023-12-20T04:58:02;99407.44;;;3.90;100.00
23417;BME280;11881;42.432;25.632;2023-12-20T05:00:28;99407.63;;;3.73;100.00
23417;BME280;11881;42.432;25.632;2023-12-20T05:02:53;99403.00;;;3.77;100.00
23417;BME280;11881;42.432;25.632;2023-12-20T05:05:19;99403.50;;;3.83;100.00
23417;BME280;11881;42.432;25.632;2023-12-20T05:07:44;99411.47;;;3.82;100.00
23417;BME280;11881;42.432;25.632;2023-12-20T05:10:10;99405.38;;;3.95;100.00
23417;BME280;11881;42.432;25.632;2023-12-20T05:12:35;99400.09;;;3.95;100.00
23417;BME280;11881;42.432;25.632;2023-12-20T05:15:01;99401.78;;;3.96;100.00
23417;BME280;11881;42.432;25.632;2023-12-20T05:17:26;99399.50;;;3.76;100.00
23417;BME280;11881;42.432;25.632;2023-12-20T05:19:52;99396.59;;;3.66;100.00
23417;BME280;11881;42.432;25.632;2023-12-20T05:22:18;99394.91;;;3.65;100.00
23417;BME280;11881;42.432;25.632;2023-12-20T05:24:45;99400.28;;;3.78;100.00
23417;BME280;11881;42.432;25.632;2023-12-20T05:27:10;99379.19;;;3.92;100.00
23417;BME280;11881;42.432;25.632;2023-12-20T05:29:36;99382.22;;;3.86;100.00
23417;BME280;11881;42.432;25.632;2023-12-20T05:32:02;99374.13;;;3.89;100.00
23417;BME280;11881;42.432;25.632;2023-12-20T05:34:30;99365.25;;;3.76;100.00
23417;BME280;11881;42.432;25.632;2023-12-20T05:36:55;99362.16;;;3.98;100.00
23417;BME280;11881;42.432;25.632;2023-12-20T05:39:21;99357.94;;;3.95;100.00
23417;BME280;11881;42.432;25.632;2023-12-20T05:41:47;99353.50;;;3.96;100.00
23417;BME280;11881;42.432;25.632;2023-12-20T05:44:13;99354.34;;;3.96;100.00
23417;BME280;11881;42.432;25.632;2023-12-20T05:46:39;99354.34;;;3.96;100.00
23417;BME280;11881;42.432;25.632;2023-12-20T05:49:05;99353.47;;;4.10;100.00
23417;BME280;11881;42.432;25.632;2023-12-20T05:51:31;99355.66;;;4.04;100.00
23417;BME280;11881;42.432;25.632;2023-12-20T05:53:56;99352.81;;;4.21;100.00
23417;BME280;11881;42.432;25.632;2023-12-20T05:56:21;99349.06;;;4.11;100.00
23417;BME280;11881;42.432;25.632;2023-12-20T05:58:47;99345.31;;;4.00;100.00
23417;BME280;11881;42.432;25.632;2023-12-20T06:01:14;99346.06;;;3.88;100.00
23417;BME280;11881;42.432;25.632;2023-12-20T06:03:43;99341.00;;;3.85;100.00
23417;BME280;11881;42.432;25.632;2023-12-20T06:06:09;99340.97;;;3.99;100.00
23417;BME280;11881;42.432;25.632;2023-12-20T06:08:36;99344.09;;;3.92;100.00
23417;BME280;11881;42.432;25.632;2023-12-20T06:11:01;99344.81;;;3.94;100.00
23417;BME280;11881;42.432;25.632;2023-12-20T06:13:27;99343.16;;;3.79;100.00
23417;BME280;11881;42.432;25.632;2023-12-20T06:15:54;99330.16;;;3.90;100.00
23417;BME280;11881;42.432;25.632;2023-12-20T06:18:20;99331.84;;;3.91;100.00
23417;BME280;11881;42.432;25.632;2023-12-20T06:20:45;99334.28;;;3.94;100.00
23417;BME280;11881;42.432;25.632;2023-12-20T06:23:11;99338.00;;;3.77;100.00
23417;BME280;11881;42.432;25.632;2023-12-20T06:25:36;99345.72;;;3.66;100.00
23417;BME280;11881;42.432;25.632;2023-12-20T06:28:02;99343.25;;;3.77;100.00
23417;BME280;11881;42.432;25.632;2023-12-20T06:30:27;99334.13;;;3.83;100.00
23417;BME280;11881;42.432;25.632;2023-12-20T06:32:54;99334.50;;;3.91;100.00
23417;BME280;11881;42.432;25.632;2023-12-20T06:35:20;99329.72;;;3.83;100.00
23417;BME280;11881;42.432;25.632;2023-12-20T06:37:45;99337.59;;;3.69;100.00
23417;BME280;11881;42.432;25.632;2023-12-20T06:40:11;99331.31;;;3.71;100.00
23417;BME280;11881;42.432;25.632;2023-12-20T06:42:37;99330.25;;;3.88;100.00
23417;BME280;11881;42.432;25.632;2023-12-20T06:45:03;99325.91;;;4.02;100.00
23417;BME280;11881;42.432;25.632;2023-12-20T06:47:29;99327.72;;;4.01;100.00
23417;BME280;11881;42.432;25.632;2023-12-20T06:49:55;99321.38;;;4.04;100.00
23417;BME280;11881;42.432;25.632;2023-12-20T06:52:20;99333.91;;;4.14;100.00
23417;BME280;11881;42.432;25.632;2023-12-20T06:54:46;99337.44;;;4.27;100.00
23417;BME280;11881;42.432;25.632;2023-12-20T06:57:11;99322.28;;;4.31;100.00
23417;BME280;11881;42.432;25.632;2023-12-20T06:59:44;99314.38;;;4.31;100.00
23417;BME280;11881;42.432;25.632;2023-12-20T07:02:09;99321.88;;;4.37;100.00
23417;BME280;11881;42.432;25.632;2023-12-20T07:04:39;99317.38;;;4.52;100.00
23417;BME280;11881;42.432;25.632;2023-12-20T07:07:05;99316.75;;;4.48;100.00
23417;BME280;11881;42.432;25.632;2023-12-20T07:09:30;99311.34;;;4.64;100.00
23417;BME280;11881;42.432;25.632;2023-12-20T07:11:57;99303.75;;;4.72;100.00
23417;BME280;11881;42.432;25.632;2023-12-20T07:14:23;99304.72;;;4.84;100.00
23417;BME280;11881;42.432;25.632;2023-12-20T07:16:49;99313.03;;;5.05;100.00
23417;BME280;11881;42.432;25.632;2023-12-20T07:19:14;99316.38;;;5.07;100.00
23417;BME280;11881;42.432;25.632;2023-12-20T07:21:40;99315.97;;;5.26;100.00
23417;BME280;11881;42.432;25.632;2023-12-20T07:24:05;99316.22;;;5.23;100.00
23417;BME280;11881;42.432;25.632;2023-12-20T07:26:31;99311.34;;;5.42;100.00
23417;BME280;11881;42.432;25.632;2023-12-20T07:28:56;99308.59;;;5.56;100.00
23417;BME280;11881;42.432;25.632;2023-12-20T07:31:23;99311.13;;;5.71;100.00
23417;BME280;11881;42.432;25.632;2023-12-20T07:33:49;99302.00;;;5.87;100.00
23417;BME280;11881;42.432;25.632;2023-12-20T07:36:15;99304.13;;;5.82;100.00
23417;BME280;11881;42.432;25.632;2023-12-20T07:38:40;99314.09;;;5.66;100.00
23417;BME280;11881;42.432;25.632;2023-12-20T07:41:09;99313.13;;;5.67;100.00
23417;BME280;11881;42.432;25.632;2023-12-20T07:43:35;99316.19;;;5.74;100.00
23417;BME280;11881;42.432;25.632;2023-12-20T07:46:07;99308.25;;;5.86;100.00
23417;BME280;11881;42.432;25.632;2023-12-20T07:48:34;99313.03;;;5.94;100.00
23417;BME280;11881;42.432;25.632;2023-12-20T07:51:00;99299.91;;;5.80;100.00
23417;BME280;11881;42.432;25.632;2023-12-20T07:53:26;99302.97;;;5.86;100.00
23417;BME280;11881;42.432;25.632;2023-12-20T07:55:52;99300.72;;;6.06;100.00
23417;BME280;11881;42.432;25.632;2023-12-20T07:58:18;99289.91;;;6.22;100.00
23417;BME280;11881;42.432;25.632;2023-12-20T08:00:44;99292.38;;;6.36;100.00
23417;BME280;11881;42.432;25.632;2023-12-20T08:03:09;99299.19;;;6.51;100.00
23417;BME280;11881;42.432;25.632;2023-12-20T08:05:35;99289.84;;;6.58;100.00
23417;BME280;11881;42.432;25.632;2023-12-20T08:08:00;99295.75;;;6.62;100.00
23417;BME280;11881;42.432;25.632;2023-12-20T08:10:26;99281.81;;;6.71;100.00
23417;BME280;11881;42.432;25.632;2023-12-20T08:12:52;99281.50;;;6.76;100.00
23417;BME280;11881;42.432;25.632;2023-12-20T08:15:17;99273.94;;;6.82;100.00
23417;BME280;11881;42.432;25.632;2023-12-20T08:17:43;99280.00;;;7.07;100.00
23417;BME280;11881;42.432;25.632;2023-12-20T08:20:09;99278.97;;;7.20;100.00
23417;BME280;11881;42.432;25.632;2023-12-20T08:22:34;99270.03;;;7.10;100.00
23417;BME280;11881;42.432;25.632;2023-12-20T08:25:00;99269.94;;;7.23;100.00
23417;BME280;11881;42.432;25.632;2023-12-20T08:27:25;99269.13;;;7.34;100.00
23417;BME280;11881;42.432;25.632;2023-12-20T08:29:51;99260.34;;;7.56;100.00
23417;BME280;11881;42.432;25.632;2023-12-20T08:32:16;99248.63;;;7.47;100.00
23417;BME280;11881;42.432;25.632;2023-12-20T08:34:42;99245.50;;;7.64;100.00
23417;BME280;11881;42.432;25.632;2023-12-20T08:37:07;99253.34;;;7.77;100.00
23417;BME280;11881;42.432;25.632;2023-12-20T08:39:33;99240.78;;;7.90;100.00
23417;BME280;11881;42.432;25.632;2023-12-20T08:41:59;99234.75;;;7.88;100.00
23417;BME280;11881;42.432;25.632;2023-12-20T08:44:24;99240.53;;;7.93;100.00
23417;BME280;11881;42.432;25.632;2023-12-20T08:46:50;99230.16;;;8.13;100.00
23417;BME280;11881;42.432;25.632;2023-12-20T08:49:15;99232.47;;;7.95;100.00
23417;BME280;11881;42.432;25.632;2023-12-20T08:51:41;99222.56;;;8.08;100.00
23417;BME280;11881;42.432;25.632;2023-12-20T08:54:07;99221.13;;;7.82;100.00
23417;BME280;11881;42.432;25.632;2023-12-20T08:56:35;99219.50;;;8.24;100.00
23417;BME280;11881;42.432;25.632;2023-12-20T08:59:01;99210.88;;;8.43;100.00
23417;BME280;11881;42.432;25.632;2023-12-20T09:01:26;99192.97;;;8.56;100.00
23417;BME280;11881;42.432;25.632;2023-12-20T09:03:52;99186.66;;;8.57;100.00
23417;BME280;11881;42.432;25.632;2023-12-20T09:06:17;99184.22;;;8.65;100.00
23417;BME280;11881;42.432;25.632;2023-12-20T09:08:43;99178.03;;;8.76;100.00
23417;BME280;11881;42.432;25.632;2023-12-20T09:11:08;99174.19;;;8.90;100.00
23417;BME280;11881;42.432;25.632;2023-12-20T09:13:34;99163.41;;;8.91;100.00
23417;BME280;11881;42.432;25.632;2023-12-20T09:15:59;99148.16;;;9.14;100.00
23417;BME280;11881;42.432;25.632;2023-12-20T09:18:25;99149.19;;;9.23;100.00
23417;BME280;11881;42.432;25.632;2023-12-20T09:20:50;99152.59;;;9.35;100.00
23417;BME280;11881;42.432;25.632;2023-12-20T09:23:16;99143.78;;;9.44;100.00
23417;BME280;11881;42.432;25.632;2023-12-20T09:25:43;99138.44;;;9.74;100.00
23417;BME280;11881;42.432;25.632;2023-12-20T09:28:09;99136.50;;;9.86;100.00
23417;BME280;11881;42.432;25.632;2023-12-20T09:30:35;99141.59;;;9.68;100.00
23417;BME280;11881;42.432;25.632;2023-12-20T09:33:04;99132.66;;;9.59;100.00
23417;BME280;11881;42.432;25.632;2023-12-20T09:35:30;99140.38;;;9.63;100.00
23417;BME280;11881;42.432;25.632;2023-12-20T09:37:55;99127.50;;;9.77;100.00
23417;BME280;11881;42.432;25.632;2023-12-20T09:40:22;99118.56;;;9.98;100.00
23417;BME280;11881;42.432;25.632;2023-12-20T09:45:21;99107.94;;;9.98;100.00
23417;BME280;11881;42.432;25.632;2023-12-20T09:47:51;99106.09;;;9.89;100.00
23417;BME280;11881;42.432;25.632;2023-12-20T09:50:19;99102.25;;;9.62;100.00
23417;BME280;11881;42.432;25.632;2023-12-20T09:52:47;99095.31;;;10.09;100.00
23417;BME280;11881;42.432;25.632;2023-12-20T09:55:15;99089.13;;;9.90;100.00
23417;BME280;11881;42.432;25.632;2023-12-20T09:57:42;99085.66;;;9.99;100.00
23417;BME280;11881;42.432;25.632;2023-12-20T10:00:08;99087.19;;;9.92;100.00
23417;BME280;11881;42.432;25.632;2023-12-20T10:02:34;99085.63;;;9.89;100.00
23417;BME280;11881;42.432;25.632;2023-12-20T10:05:06;99087.47;;;9.89;100.00
23417;BME280;11881;42.432;25.632;2023-12-20T10:07:35;99081.16;;;10.19;100.00
23417;BME280;11881;42.432;25.632;2023-12-20T10:10:01;99081.59;;;10.33;100.00
23417;BME280;11881;42.432;25.632;2023-12-20T10:12:27;99070.81;;;10.16;100.00
23417;BME280;11881;42.432;25.632;2023-12-20T10:14:53;99069.25;;;10.42;100.00
23417;BME280;11881;42.432;25.632;2023-12-20T10:17:18;99056.34;;;10.47;100.00
23417;BME280;11881;42.432;25.632;2023-12-20T10:19:44;99053.94;;;10.54;100.00
23417;BME280;11881;42.432;25.632;2023-12-20T10:22:10;99047.00;;;10.24;100.00
23417;BME280;11881;42.432;25.632;2023-12-20T10:24:35;99044.31;;;10.33;100.00
23417;BME280;11881;42.432;25.632;2023-12-20T10:27:04;99032.69;;;10.34;100.00
23417;BME280;11881;42.432;25.632;2023-12-20T10:29:34;99030.13;;;10.52;100.00
23417;BME280;11881;42.432;25.632;2023-12-20T10:32:21;99028.44;;;10.51;100.00
23417;BME280;11881;42.432;25.632;2023-12-20T10:34:47;99024.50;;;10.55;100.00
23417;BME280;11881;42.432;25.632;2023-12-20T10:37:13;99026.34;;;10.45;100.00
23417;BME280;11881;42.432;25.632;2023-12-20T10:39:38;99023.13;;;10.51;100.00
23417;BME280;11881;42.432;25.632;2023-12-20T10:42:05;99023.69;;;10.45;100.00
23417;BME280;11881;42.432;25.632;2023-12-20T10:44:30;99020.78;;;10.38;100.00
23417;BME280;11881;42.432;25.632;2023-12-20T10:46:56;99025.66;;;10.14;100.00
23417;BME280;11881;42.432;25.632;2023-12-20T10:49:24;99017.66;;;10.43;100.00
23417;BME280;11881;42.432;25.632;2023-12-20T10:51:52;99013.47;;;10.31;100.00
23417;BME280;11881;42.432;25.632;2023-12-20T10:54:19;99001.66;;;10.53;100.00
23417;BME280;11881;42.432;25.632;2023-12-20T10:56:45;98998.19;;;10.43;100.00
23417;BME280;11881;42.432;25.632;2023-12-20T10:59:12;98996.66;;;10.30;100.00
23417;BME280;11881;42.432;25.632;2023-12-20T11:01:40;98990.06;;;10.44;100.00
23417;BME280;11881;42.432;25.632;2023-12-20T11:04:08;98989.72;;;10.57;100.00
23417;BME280;11881;42.432;25.632;2023-12-20T11:09:21;98984.41;;;10.57;100.00
23417;BME280;11881;42.432;25.632;2023-12-20T11:12:10;98977.66;;;10.62;100.00
23417;BME280;11881;42.432;25.632;2023-12-20T11:14:47;98972.59;;;10.59;100.00
23417;BME280;11881;42.432;25.632;2023-12-20T11:17:14;98971.94;;;10.48;100.00
23417;BME280;11881;42.432;25.632;2023-12-20T11:22:26;98967.38;;;10.30;100.00
23417;BME280;11881;42.432;25.632;2023-12-20T11:24:54;98957.72;;;10.20;100.00
23417;BME280;11881;42.432;25.632;2023-12-20T11:27:23;98957.44;;;10.32;100.00
23417;BME280;11881;42.432;25.632;2023-12-20T11:29:52;98948.03;;;10.38;100.00
23417;BME280;11881;42.432;25.632;2023-12-20T11:35:20;98939.78;;;10.22;100.00
23417;BME280;11881;42.432;25.632;2023-12-20T11:37:45;98941.16;;;10.35;100.00
23417;BME280;11881;42.432;25.632;2023-12-20T11:40:17;98929.25;;;10.39;100.00
23417;BME280;11881;42.432;25.632;2023-12-20T11:42:50;98933.47;;;10.32;100.00
23417;BME280;11881;42.432;25.632;2023-12-20T11:45:24;98925.44;;;10.42;100.00
23417;BME280;11881;42.432;25.632;2023-12-20T11:47:51;98918.44;;;10.41;100.00
23417;BME280;11881;42.432;25.632;2023-12-20T11:50:17;98918.28;;;10.43;100.00
23417;BME280;11881;42.432;25.632;2023-12-20T11:52:43;98909.34;;;10.44;100.00
23417;BME280;11881;42.432;25.632;2023-12-20T11:55:09;98906.84;;;10.32;100.00
23417;BME280;11881;42.432;25.632;2023-12-20T11:57:35;98900.41;;;10.25;100.00
23417;BME280;11881;42.432;25.632;2023-12-20T12:00:02;98898.16;;;10.30;100.00
23417;BME280;11881;42.432;25.632;2023-12-20T12:02:28;98891.03;;;10.21;100.00
23417;BME280;11881;42.432;25.632;2023-12-20T12:04:53;98885.72;;;10.11;100.00
23417;BME280;11881;42.432;25.632;2023-12-20T12:07:20;98883.22;;;10.10;100.00
23417;BME280;11881;42.432;25.632;2023-12-20T12:09:45;98882.25;;;10.11;100.00
23417;BME280;11881;42.432;25.632;2023-12-20T12:12:12;98882.09;;;10.03;100.00
23417;BME280;11881;42.432;25.632;2023-12-20T12:14:38;98874.00;;;10.04;100.00
23417;BME280;11881;42.432;25.632;2023-12-20T12:17:04;98874.69;;;10.06;100.00
23417;BME280;11881;42.432;25.632;2023-12-20T12:19:30;98863.19;;;10.06;100.00
23417;BME280;11881;42.432;25.632;2023-12-20T12:22:09;98859.59;;;9.97;100.00
23417;BME280;11881;42.432;25.632;2023-12-20T12:24:46;98856.63;;;10.10;100.00
23417;BME280;11881;42.432;25.632;2023-12-20T12:27:15;98858.28;;;10.11;100.00
23417;BME280;11881;42.432;25.632;2023-12-20T12:29:42;98847.09;;;10.07;100.00
23417;BME280;11881;42.432;25.632;2023-12-20T12:32:25;98858.72;;;10.06;100.00
23417;BME280;11881;42.432;25.632;2023-12-20T12:34:50;98852.84;;;10.03;100.00
23417;BME280;11881;42.432;25.632;2023-12-20T12:37:16;98851.75;;;9.96;100.00
23417;BME280;11881;42.432;25.632;2023-12-20T12:39:42;98848.66;;;10.00;100.00
23417;BME280;11881;42.432;25.632;2023-12-20T12:42:07;98843.94;;;9.84;100.00
23417;BME280;11881;42.432;25.632;2023-12-20T12:44:33;98852.19;;;9.91;100.00
23417;BME280;11881;42.432;25.632;2023-12-20T12:46:58;98845.06;;;9.92;100.00
23417;BME280;11881;42.432;25.632;2023-12-20T12:49:24;98839.59;;;9.83;100.00
23417;BME280;11881;42.432;25.632;2023-12-20T12:51:49;98844.25;;;9.81;100.00
23417;BME280;11881;42.432;25.632;2023-12-20T12:54:15;98832.03;;;9.89;100.00